sensor_id;sensor_type;location;lat;lon;timestamp;temperature;humidity
16627;DHT22;8427;52.204;7.202;2023-12-20T00:00:14;6.40;96.00
16627;DHT22;8427;52.204;7.202;2023-12-20T00:02:42;6.40;95.90
16627;DHT22;8427;52.204;7.202;2023-12-20T00:05:13;6.20;95.90
16627;DHT22;8427;52.204;7.202;2023-12-20T00:07:41;6.30;95.60
16627;DHT22;8427;52.204;7.202;2023-12-20T00:10:10;5.90;95.60
16627;DHT22;8427;52.204;7.202;2023-12-20T00:12:40;5.80;95.70
16627;DHT22;8427;52.204;7.202;2023-12-20T00:15:09;5.80;95.80
16627;DHT22;8427;52.204;7.202;2023-12-20T00:17:37;5.70;95.60
16627;DHT22;8427;52.204;7.202;2023-12-20T00:20:06;6.00;95.70
16627;DHT22;8427;52.204;7.202;2023-12-20T00:22:34;5.90;95.80
16627;DHT22;8427;52.204;7.202;2023-12-20T00:25:03;5.90;95.70
16627;DHT22;8427;52.204;7.202;2023-12-20T00:27:31;5.90;95.60
16627;DHT22;8427;52.204;7.202;2023-12-20T00:30:00;5.70;95.70
16627;DHT22;8427;52.204;7.202;2023-12-20T00:32:28;5.70;95.80
16627;DHT22;8427;52.204;7.202;2023-12-20T00:34:56;5.90;95.70
16627;DHT22;8427;52.204;7.202;2023-12-20T00:37:23;5.80;95.60
16627;DHT22;8427;52.204;7.202;2023-12-20T00:39:52;6.00;95.60
16627;DHT22;8427;52.204;7.202;2023-12-20T00:42:20;5.60;95.50
16627;DHT22;8427;52.204;7.202;2023-12-20T00:44:47;5.70;95.50
16627;DHT22;8427;52.204;7.202;2023-12-20T00:47:18;5.50;95.50
16627;DHT22;8427;52.204;7.202;2023-12-20T00:49:46;5.40;95.50
16627;DHT22;8427;52.204;7.202;2023-12-20T00:52:14;5.40;95.50
16627;DHT22;8427;52.204;7.202;2023-12-20T00:54:44;5.80;95.60
16627;DHT22;8427;52.204;7.202;2023-12-20T00:57:12;5.40;95.60
16627;DHT22;8427;52.204;7.202;2023-12-20T00:59:40;5.50;95.50
16627;DHT22;8427;52.204;7.202;2023-12-20T01:02:08;5.50;95.50
16627;DHT22;8427;52.204;7.202;2023-12-20T01:04:38;5.40;95.70
16627;DHT22;8427;52.204;7.202;2023-12-20T01:07:05;5.60;95.70
16627;DHT22;8427;52.204;7.202;2023-12-20T01:09:33;5.50;95.80
16627;DHT22;8427;52.204;7.202;2023-12-20T01:12:01;5.50;95.70
16627;DHT22;8427;52.204;7.202;2023-12-20T01:14:29;5.70;95.70
16627;DHT22;8427;52.204;7.202;2023-12-20T01:16:57;5.50;95.50
16627;DHT22;8427;52.204;7.202;2023-12-20T01:19:25;5.70;95.50
16627;DHT22;8427;52.204;7.202;2023-12-20T01:21:55;5.50;95.40
16627;DHT22;8427;52.204;7.202;2023-12-20T01:24:23;5.40;95.30
16627;DHT22;8427;52.204;7.202;2023-12-20T01:26:51;5.20;95.40
16627;DHT22;8427;52.204;7.202;2023-12-20T01:29:19;5.10;95.30
16627;DHT22;8427;52.204;7.202;2023-12-20T01:31:47;5.30;95.50
16627;DHT22;8427;52.204;7.202;2023-12-20T01:34:15;5.30;95.50
16627;DHT22;8427;52.204;7.202;2023-12-20T01:36:44;5.10;95.30
16627;DHT22;8427;52.204;7.202;2023-12-20T01:39:13;5.30;95.50
16627;DHT22;8427;52.204;7.202;2023-12-20T01:41:53;5.00;95.50
16627;DHT22;8427;52.204;7.202;2023-12-20T01:44:21;5.00;95.30
16627;DHT22;8427;52.204;7.202;2023-12-20T01:46:49;5.10;95.40
16627;DHT22;8427;52.204;7.202;2023-12-20T01:49:17;4.90;95.30
16627;DHT22;8427;52.204;7.202;2023-12-20T01:51:46;4.90;95.40
16627;DHT22;8427;52.204;7.202;2023-12-20T01:54:16;4.90;95.40
16627;DHT22;8427;52.204;7.202;2023-12-20T01:56:44;5.00;95.30
16627;DHT22;8427;52.204;7.202;2023-12-20T01:59:12;4.90;95.30
16627;DHT22;8427;52.204;7.202;2023-12-20T02:01:40;5.10;95.30
16627;DHT22;8427;52.204;7.202;2023-12-20T02:04:08;4.90;95.20
16627;DHT22;8427;52.204;7.202;2023-12-20T02:06:37;4.90;95.40
16627;DHT22;8427;52.204;7.202;2023-12-20T02:09:07;5.00;95.50
16627;DHT22;8427;52.204;7.202;2023-12-20T02:11:36;5.00;95.30
16627;DHT22;8427;52.204;7.202;2023-12-20T02:14:04;4.90;95.40
16627;DHT22;8427;52.204;7.202;2023-12-20T02:16:32;4.70;95.40
16627;DHT22;8427;52.204;7.202;2023-12-20T02:19:00;5.00;95.40
16627;DHT22;8427;52.204;7.202;2023-12-20T02:21:33;4.90;95.40
16627;DHT22;8427;52.204;7.202;2023-12-20T02:24:01;4.90;95.20
16627;DHT22;8427;52.204;7.202;2023-12-20T02:26:29;4.90;95.20
16627;DHT22;8427;52.204;7.202;2023-12-20T02:28:58;5.00;95.20
16627;DHT22;8427;52.204;7.202;2023-12-20T02:31:26;4.90;95.20
16627;DHT22;8427;52.204;7.202;2023-12-20T02:33:54;4.90;95.30
16627;DHT22;8427;52.204;7.202;2023-12-20T02:36:22;5.00;95.30
16627;DHT22;8427;52.204;7.202;2023-12-20T02:38:52;4.90;95.20
16627;DHT22;8427;52.204;7.202;2023-12-20T02:41:20;5.10;95.10
16627;DHT22;8427;52.204;7.202;2023-12-20T02:43:48;5.00;95.00
16627;DHT22;8427;52.204;7.202;2023-12-20T02:46:16;5.10;94.80
16627;DHT22;8427;52.204;7.202;2023-12-20T02:48:44;4.90;94.80
16627;DHT22;8427;52.204;7.202;2023-12-20T02:51:13;5.00;94.80
16627;DHT22;8427;52.204;7.202;2023-12-20T02:53:41;4.70;94.90
16627;DHT22;8427;52.204;7.202;2023-12-20T02:56:10;4.80;94.80
16627;DHT22;8427;52.204;7.202;2023-12-20T02:58:38;4.90;94.90
16627;DHT22;8427;52.204;7.202;2023-12-20T03:01:06;4.70;95.00
16627;DHT22;8427;52.204;7.202;2023-12-20T03:03:34;4.70;95.00
16627;DHT22;8427;52.204;7.202;2023-12-20T03:06:01;4.90;95.00
16627;DHT22;8427;52.204;7.202;2023-12-20T03:08:29;4.70;95.00
16627;DHT22;8427;52.204;7.202;2023-12-20T03:10:59;4.80;95.00
16627;DHT22;8427;52.204;7.202;2023-12-20T03:13:29;4.60;95.00
16627;DHT22;8427;52.204;7.202;2023-12-20T03:15:56;4.80;95.00
16627;DHT22;8427;52.204;7.202;2023-12-20T03:18:24;4.80;95.10
16627;DHT22;8427;52.204;7.202;2023-12-20T03:20:54;4.80;95.00
16627;DHT22;8427;52.204;7.202;2023-12-20T03:23:22;4.60;95.00
16627;DHT22;8427;52.204;7.202;2023-12-20T03:25:50;4.90;95.00
16627;DHT22;8427;52.204;7.202;2023-12-20T03:28:18;4.70;94.90
16627;DHT22;8427;52.204;7.202;2023-12-20T03:30:47;4.80;94.90
16627;DHT22;8427;52.204;7.202;2023-12-20T03:33:15;4.80;94.90
16627;DHT22;8427;52.204;7.202;2023-12-20T03:35:43;5.10;94.80
16627;DHT22;8427;52.204;7.202;2023-12-20T03:38:11;5.00;94.80
16627;DHT22;8427;52.204;7.202;2023-12-20T03:40:39;5.10;94.70
16627;DHT22;8427;52.204;7.202;2023-12-20T03:43:07;4.90;94.90
16627;DHT22;8427;52.204;7.202;2023-12-20T03:45:35;5.00;94.80
16627;DHT22;8427;52.204;7.202;2023-12-20T03:48:05;5.00;94.70
16627;DHT22;8427;52.204;7.202;2023-12-20T03:50:34;4.90;94.70
16627;DHT22;8427;52.204;7.202;2023-12-20T03:53:02;4.90;94.60
16627;DHT22;8427;52.204;7.202;2023-12-20T03:55:30;5.00;94.50
16627;DHT22;8427;52.204;7.202;2023-12-20T03:57:58;4.90;94.50
16627;DHT22;8427;52.204;7.202;2023-12-20T04:00:26;4.90;94.40
16627;DHT22;8427;52.204;7.202;2023-12-20T04:02:54;5.00;94.50
16627;DHT22;8427;52.204;7.202;2023-12-20T04:05:23;5.00;94.40
16627;DHT22;8427;52.204;7.202;2023-12-20T04:07:51;5.20;94.40
16627;DHT22;8427;52.204;7.202;2023-12-20T04:10:19;5.10;94.20
16627;DHT22;8427;52.204;7.202;2023-12-20T04:12:47;5.20;94.20
16627;DHT22;8427;52.204;7.202;2023-12-20T04:15:15;5.30;94.00
16627;DHT22;8427;52.204;7.202;2023-12-20T04:17:43;5.20;93.90
16627;DHT22;8427;52.204;7.202;2023-12-20T04:20:11;5.50;94.00
16627;DHT22;8427;52.204;7.202;2023-12-20T04:22:40;5.10;93.80
16627;DHT22;8427;52.204;7.202;2023-12-20T04:25:09;5.50;93.90
16627;DHT22;8427;52.204;7.202;2023-12-20T04:27:37;5.40;93.70
16627;DHT22;8427;52.204;7.202;2023-12-20T04:30:06;5.40;93.80
16627;DHT22;8427;52.204;7.202;2023-12-20T04:32:35;5.40;93.80
16627;DHT22;8427;52.204;7.202;2023-12-20T04:35:03;5.40;93.80
16627;DHT22;8427;52.204;7.202;2023-12-20T04:37:31;5.50;93.80
16627;DHT22;8427;52.204;7.202;2023-12-20T04:40:01;5.30;93.90
16627;DHT22;8427;52.204;7.202;2023-12-20T04:42:28;5.50;93.90
16627;DHT22;8427;52.204;7.202;2023-12-20T04:44:56;5.10;93.90
16627;DHT22;8427;52.204;7.202;2023-12-20T04:47:24;5.20;93.90
16627;DHT22;8427;52.204;7.202;2023-12-20T04:49:52;5.30;94.00
16627;DHT22;8427;52.204;7.202;2023-12-20T04:52:20;5.30;94.00
16627;DHT22;8427;52.204;7.202;2023-12-20T04:54:48;5.30;94.00
16627;DHT22;8427;52.204;7.202;2023-12-20T04:57:18;5.30;94.10
16627;DHT22;8427;52.204;7.202;2023-12-20T04:59:46;5.20;94.00
16627;DHT22;8427;52.204;7.202;2023-12-20T05:02:13;5.30;93.90
16627;DHT22;8427;52.204;7.202;2023-12-20T05:04:41;5.30;93.70
16627;DHT22;8427;52.204;7.202;2023-12-20T05:07:09;5.40;93.70
16627;DHT22;8427;52.204;7.202;2023-12-20T05:09:37;5.30;93.80
16627;DHT22;8427;52.204;7.202;2023-12-20T05:12:06;5.50;93.70
16627;DHT22;8427;52.204;7.202;2023-12-20T05:14:36;5.20;93.70
16627;DHT22;8427;52.204;7.202;2023-12-20T05:17:04;5.50;93.60
16627;DHT22;8427;52.204;7.202;2023-12-20T05:19:31;5.40;93.60
16627;DHT22;8427;52.204;7.202;2023-12-20T05:22:02;5.30;93.80
16627;DHT22;8427;52.204;7.202;2023-12-20T05:24:29;5.30;93.80
16627;DHT22;8427;52.204;7.202;2023-12-20T05:26:57;5.20;93.80
16627;DHT22;8427;52.204;7.202;2023-12-20T05:29:25;5.50;93.70
16627;DHT22;8427;52.204;7.202;2023-12-20T05:31:54;5.30;93.60
16627;DHT22;8427;52.204;7.202;2023-12-20T05:34:22;5.40;93.60
16627;DHT22;8427;52.204;7.202;2023-12-20T05:36:50;5.30;93.60
16627;DHT22;8427;52.204;7.202;2023-12-20T05:39:18;5.40;93.50
16627;DHT22;8427;52.204;7.202;2023-12-20T05:41:46;5.50;93.50
16627;DHT22;8427;52.204;7.202;2023-12-20T05:44:14;5.70;93.40
16627;DHT22;8427;52.204;7.202;2023-12-20T05:46:42;5.40;93.40
16627;DHT22;8427;52.204;7.202;2023-12-20T05:49:11;5.40;93.30
16627;DHT22;8427;52.204;7.202;2023-12-20T05:51:40;5.50;93.30
16627;DHT22;8427;52.204;7.202;2023-12-20T05:54:08;5.50;93.40
16627;DHT22;8427;52.204;7.202;2023-12-20T05:56:36;5.60;93.30
16627;DHT22;8427;52.204;7.202;2023-12-20T05:59:04;5.50;93.10
16627;DHT22;8427;52.204;7.202;2023-12-20T06:01:32;5.60;93.00
16627;DHT22;8427;52.204;7.202;2023-12-20T06:04:00;5.50;93.00
16627;DHT22;8427;52.204;7.202;2023-12-20T06:06:31;5.50;92.80
16627;DHT22;8427;52.204;7.202;2023-12-20T06:08:59;5.60;92.70
16627;DHT22;8427;52.204;7.202;2023-12-20T06:11:29;5.70;92.50
16627;DHT22;8427;52.204;7.202;2023-12-20T06:13:57;5.60;92.30
16627;DHT22;8427;52.204;7.202;2023-12-20T06:16:25;5.70;92.50
16627;DHT22;8427;52.204;7.202;2023-12-20T06:18:53;5.80;92.30
16627;DHT22;8427;52.204;7.202;2023-12-20T06:21:21;5.60;92.50
16627;DHT22;8427;52.204;7.202;2023-12-20T06:23:50;5.60;92.60
16627;DHT22;8427;52.204;7.202;2023-12-20T06:26:18;5.60;92.60
16627;DHT22;8427;52.204;7.202;2023-12-20T06:28:46;5.60;92.50
16627;DHT22;8427;52.204;7.202;2023-12-20T06:31:14;5.80;92.20
16627;DHT22;8427;52.204;7.202;2023-12-20T06:33:43;5.70;92.40
16627;DHT22;8427;52.204;7.202;2023-12-20T06:36:11;5.70;92.10
16627;DHT22;8427;52.204;7.202;2023-12-20T06:38:40;5.90;92.00
16627;DHT22;8427;52.204;7.202;2023-12-20T06:41:13;5.60;92.00
16627;DHT22;8427;52.204;7.202;2023-12-20T06:43:40;5.50;91.90
16627;DHT22;8427;52.204;7.202;2023-12-20T06:46:16;5.80;91.70
16627;DHT22;8427;52.204;7.202;2023-12-20T06:48:44;5.70;91.80
16627;DHT22;8427;52.204;7.202;2023-12-20T06:51:14;5.80;91.90
16627;DHT22;8427;52.204;7.202;2023-12-20T06:53:43;5.60;91.70
16627;DHT22;8427;52.204;7.202;2023-12-20T06:56:12;5.80;91.50
16627;DHT22;8427;52.204;7.202;2023-12-20T06:58:44;5.90;91.60
16627;DHT22;8427;52.204;7.202;2023-12-20T07:01:13;5.80;91.30
16627;DHT22;8427;52.204;7.202;2023-12-20T07:03:41;5.80;91.40
16627;DHT22;8427;52.204;7.202;2023-12-20T07:06:09;5.80;91.40
16627;DHT22;8427;52.204;7.202;2023-12-20T07:08:37;5.80;91.30
16627;DHT22;8427;52.204;7.202;2023-12-20T07:11:05;5.90;91.40
16627;DHT22;8427;52.204;7.202;2023-12-20T07:13:35;6.00;91.20
16627;DHT22;8427;52.204;7.202;2023-12-20T07:16:03;6.00;91.30
16627;DHT22;8427;52.204;7.202;2023-12-20T07:18:31;5.60;91.30
16627;DHT22;8427;52.204;7.202;2023-12-20T07:20:59;5.70;91.00
16627;DHT22;8427;52.204;7.202;2023-12-20T07:23:26;5.90;91.40
16627;DHT22;8427;52.204;7.202;2023-12-20T07:25:54;5.80;91.40
16627;DHT22;8427;52.204;7.202;2023-12-20T07:28:22;5.90;91.50
16627;DHT22;8427;52.204;7.202;2023-12-20T07:30:53;5.80;91.50
16627;DHT22;8427;52.204;7.202;2023-12-20T07:33:21;6.00;91.40
16627;DHT22;8427;52.204;7.202;2023-12-20T07:35:49;5.90;91.30
16627;DHT22;8427;52.204;7.202;2023-12-20T07:38:18;5.90;91.40
16627;DHT22;8427;52.204;7.202;2023-12-20T07:40:46;5.70;91.40
16627;DHT22;8427;52.204;7.202;2023-12-20T07:43:14;5.80;91.70
16627;DHT22;8427;52.204;7.202;2023-12-20T07:45:42;6.00;91.60
16627;DHT22;8427;52.204;7.202;2023-12-20T07:48:12;5.80;91.50
16627;DHT22;8427;52.204;7.202;2023-12-20T07:50:39;6.00;91.20
16627;DHT22;8427;52.204;7.202;2023-12-20T07:53:08;5.90;91.40
16627;DHT22;8427;52.204;7.202;2023-12-20T07:55:36;5.90;91.30
16627;DHT22;8427;52.204;7.202;2023-12-20T07:58:04;5.80;91.40
16627;DHT22;8427;52.204;7.202;2023-12-20T08:00:32;6.10;91.30
16627;DHT22;8427;52.204;7.202;2023-12-20T08:03:00;6.10;91.40
16627;DHT22;8427;52.204;7.202;2023-12-20T08:05:31;6.10;91.20
16627;DHT22;8427;52.204;7.202;2023-12-20T08:08:02;6.00;91.40
16627;DHT22;8427;52.204;7.202;2023-12-20T08:10:29;5.90;91.40
16627;DHT22;8427;52.204;7.202;2023-12-20T08:12:58;6.10;91.50
16627;DHT22;8427;52.204;7.202;2023-12-20T08:15:26;6.00;91.40
16627;DHT22;8427;52.204;7.202;2023-12-20T08:17:54;6.20;91.30
16627;DHT22;8427;52.204;7.202;2023-12-20T08:20:22;6.20;91.30
16627;DHT22;8427;52.204;7.202;2023-12-20T08:23:06;6.00;91.00
16627;DHT22;8427;52.204;7.202;2023-12-20T08:25:34;6.20;90.80
16627;DHT22;8427;52.204;7.202;2023-12-20T08:28:02;6.30;90.80
16627;DHT22;8427;52.204;7.202;2023-12-20T08:30:31;6.20;90.70
16627;DHT22;8427;52.204;7.202;2023-12-20T08:32:59;6.30;90.70
16627;DHT22;8427;52.204;7.202;2023-12-20T08:35:28;6.20;90.60
16627;DHT22;8427;52.204;7.202;2023-12-20T08:37:56;6.30;90.60
16627;DHT22;8427;52.204;7.202;2023-12-20T08:40:25;6.20;90.80
16627;DHT22;8427;52.204;7.202;2023-12-20T08:42:53;6.30;90.70
16627;DHT22;8427;52.204;7.202;2023-12-20T08:45:22;6.10;90.80
16627;DHT22;8427;52.204;7.202;2023-12-20T08:47:50;6.20;90.50
16627;DHT22;8427;52.204;7.202;2023-12-20T08:50:19;6.30;90.50
16627;DHT22;8427;52.204;7.202;2023-12-20T08:52:47;6.20;90.60
16627;DHT22;8427;52.204;7.202;2023-12-20T08:55:15;6.40;90.60
16627;DHT22;8427;52.204;7.202;2023-12-20T08:57:46;6.10;90.70
16627;DHT22;8427;52.204;7.202;2023-12-20T09:00:15;6.30;90.80
16627;DHT22;8427;52.204;7.202;2023-12-20T09:02:43;6.50;90.90
16627;DHT22;8427;52.204;7.202;2023-12-20T09:05:11;6.40;91.20
16627;DHT22;8427;52.204;7.202;2023-12-20T09:07:39;6.20;91.40
16627;DHT22;8427;52.204;7.202;2023-12-20T09:10:07;6.40;91.80
16627;DHT22;8427;52.204;7.202;2023-12-20T09:12:35;6.50;92.10
16627;DHT22;8427;52.204;7.202;2023-12-20T09:15:07;6.20;92.00
16627;DHT22;8427;52.204;7.202;2023-12-20T09:17:35;6.40;92.20
16627;DHT22;8427;52.204;7.202;2023-12-20T09:20:04;6.40;92.30
16627;DHT22;8427;52.204;7.202;2023-12-20T09:22:34;6.20;92.60
16627;DHT22;8427;52.204;7.202;2023-12-20T09:25:02;6.10;92.90
16627;DHT22;8427;52.204;7.202;2023-12-20T09:27:30;6.30;92.90
16627;DHT22;8427;52.204;7.202;2023-12-20T09:29:58;6.20;93.00
16627;DHT22;8427;52.204;7.202;2023-12-20T09:32:28;6.20;93.00
16627;DHT22;8427;52.204;7.202;2023-12-20T09:34:56;6.30;93.20
16627;DHT22;8427;52.204;7.202;2023-12-20T09:37:26;6.30;93.50
16627;DHT22;8427;52.204;7.202;2023-12-20T09:39:54;6.10;93.60
16627;DHT22;8427;52.204;7.202;2023-12-20T09:42:29;6.20;93.80
16627;DHT22;8427;52.204;7.202;2023-12-20T09:44:59;6.20;93.90
16627;DHT22;8427;52.204;7.202;2023-12-20T09:47:29;6.20;93.90
16627;DHT22;8427;52.204;7.202;2023-12-20T09:49:57;6.20;93.80
16627;DHT22;8427;52.204;7.202;2023-12-20T09:54:55;6.10;93.80
16627;DHT22;8427;52.204;7.202;2023-12-20T09:57:23;6.20;93.90
16627;DHT22;8427;52.204;7.202;2023-12-20T09:59:51;6.40;94.00
16627;DHT22;8427;52.204;7.202;2023-12-20T10:02:21;6.20;93.90
16627;DHT22;8427;52.204;7.202;2023-12-20T10:04:54;6.40;93.60
16627;DHT22;8427;52.204;7.202;2023-12-20T10:07:22;6.30;93.70
16627;DHT22;8427;52.204;7.202;2023-12-20T10:09:54;6.50;93.80
16627;DHT22;8427;52.204;7.202;2023-12-20T10:12:22;6.40;94.00
16627;DHT22;8427;52.204;7.202;2023-12-20T10:14:50;6.50;93.60
16627;DHT22;8427;52.204;7.202;2023-12-20T10:17:18;6.40;93.60
16627;DHT22;8427;52.204;7.202;2023-12-20T10:19:46;6.50;93.70
16627;DHT22;8427;52.204;7.202;2023-12-20T10:22:16;6.40;94.10
16627;DHT22;8427;52.204;7.202;2023-12-20T10:24:45;6.50;94.30
16627;DHT22;8427;52.204;7.202;2023-12-20T10:27:14;6.50;94.20
16627;DHT22;8427;52.204;7.202;2023-12-20T10:29:44;6.50;94.20
16627;DHT22;8427;52.204;7.202;2023-12-20T10:32:22;6.60;94.10
16627;DHT22;8427;52.204;7.202;2023-12-20T10:34:51;6.50;93.80
16627;DHT22;8427;52.204;7.202;2023-12-20T10:37:21;6.40;93.90
16627;DHT22;8427;52.204;7.202;2023-12-20T10:39:50;6.60;94.10
16627;DHT22;8427;52.204;7.202;2023-12-20T10:42:21;6.60;94.10
16627;DHT22;8427;52.204;7.202;2023-12-20T10:44:49;6.80;93.90
16627;DHT22;8427;52.204;7.202;2023-12-20T10:47:19;6.40;93.90
16627;DHT22;8427;52.204;7.202;2023-12-20T10:49:47;6.40;93.70
16627;DHT22;8427;52.204;7.202;2023-12-20T10:52:17;6.60;93.80
16627;DHT22;8427;52.204;7.202;2023-12-20T10:54:46;6.50;93.80
16627;DHT22;8427;52.204;7.202;2023-12-20T10:57:16;6.80;93.90
16627;DHT22;8427;52.204;7.202;2023-12-20T10:59:45;6.80;93.50
16627;DHT22;8427;52.204;7.202;2023-12-20T11:02:17;6.90;93.30
16627;DHT22;8427;52.204;7.202;2023-12-20T11:04:52;6.80;93.20
16627;DHT22;8427;52.204;7.202;2023-12-20T11:07:28;6.90;93.30
16627;DHT22;8427;52.204;7.202;2023-12-20T11:10:03;7.00;93.20
16627;DHT22;8427;52.204;7.202;2023-12-20T11:12:41;7.30;92.80
16627;DHT22;8427;52.204;7.202;2023-12-20T11:15:12;7.30;92.40
16627;DHT22;8427;52.204;7.202;2023-12-20T11:17:44;7.30;92.30
16627;DHT22;8427;52.204;7.202;2023-12-20T11:20:17;7.20;91.90
16627;DHT22;8427;52.204;7.202;2023-12-20T11:22:52;7.40;92.00
16627;DHT22;8427;52.204;7.202;2023-12-20T11:25:22;6.90;91.90
16627;DHT22;8427;52.204;7.202;2023-12-20T11:28:06;7.00;91.90
16627;DHT22;8427;52.204;7.202;2023-12-20T11:30:41;7.10;91.40
16627;DHT22;8427;52.204;7.202;2023-12-20T11:33:10;7.10;91.60
16627;DHT22;8427;52.204;7.202;2023-12-20T11:35:39;7.10;91.60
16627;DHT22;8427;52.204;7.202;2023-12-20T11:38:08;7.20;91.90
16627;DHT22;8427;52.204;7.202;2023-12-20T11:40:38;7.00;91.70
16627;DHT22;8427;52.204;7.202;2023-12-20T11:43:06;7.10;92.00
16627;DHT22;8427;52.204;7.202;2023-12-20T11:45:34;7.00;92.00
16627;DHT22;8427;52.204;7.202;2023-12-20T11:48:02;7.10;92.60
16627;DHT22;8427;52.204;7.202;2023-12-20T11:50:30;6.70;92.80
16627;DHT22;8427;52.204;7.202;2023-12-20T11:52:59;6.80;93.10
16627;DHT22;8427;52.204;7.202;2023-12-20T11:55:26;6.90;93.00
16627;DHT22;8427;52.204;7.202;2023-12-20T11:57:56;7.00;93.30
16627;DHT22;8427;52.204;7.202;2023-12-20T12:00:25;7.00;93.40
16627;DHT22;8427;52.204;7.202;2023-12-20T12:02:57;6.80;93.50
16627;DHT22;8427;52.204;7.202;2023-12-20T12:05:25;6.90;94.00
16627;DHT22;8427;52.204;7.202;2023-12-20T12:07:53;6.60;94.40
16627;DHT22;8427;52.204;7.202;2023-12-20T12:10:21;6.50;92.90
16627;DHT22;8427;52.204;7.202;2023-12-20T12:12:50;6.00;93.00
16627;DHT22;8427;52.204;7.202;2023-12-20T12:15:19;5.80;90.80
16627;DHT22;8427;52.204;7.202;2023-12-20T12:17:53;5.00;91.70
16627;DHT22;8427;52.204;7.202;2023-12-20T12:20:22;5.10;93.30
16627;DHT22;8427;52.204;7.202;2023-12-20T12:22:58;5.10;93.70
16627;DHT22;8427;52.204;7.202;2023-12-20T12:25:26;5.10;94.30
16627;DHT22;8427;52.204;7.202;2023-12-20T12:27:55;5.20;94.20
16627;DHT22;8427;52.204;7.202;2023-12-20T12:30:25;5.00;94.50
16627;DHT22;8427;52.204;7.202;2023-12-20T12:32:58;5.30;94.40
16627;DHT22;8427;52.204;7.202;2023-12-20T12:35:27;5.40;94.50
16627;DHT22;8427;52.204;7.202;2023-12-20T12:37:55;5.60;94.30
16627;DHT22;8427;52.204;7.202;2023-12-20T12:40:22;5.40;94.50
16627;DHT22;8427;52.204;7.202;2023-12-20T12:42:50;5.40;94.50
16627;DHT22;8427;52.204;7.202;2023-12-20T12:45:18;5.40;93.90
16627;DHT22;8427;52.204;7.202;2023-12-20T12:47:48;5.70;94.10
16627;DHT22;8427;52.204;7.202;2023-12-20T12:50:16;5.80;94.50
16627;DHT22;8427;52.204;7.202;2023-12-20T12:52:44;5.70;94.20
16627;DHT22;8427;52.204;7.202;2023-12-20T12:55:12;5.80;94.10
16627;DHT22;8427;52.204;7.202;2023-12-20T12:57:40;5.70;94.10
16627;DHT22;8427;52.204;7.202;2023-12-20T13:00:10;5.60;94.20
16627;DHT22;8427;52.204;7.202;2023-12-20T13:02:38;5.90;94.40
16627;DHT22;8427;52.204;7.202;2023-12-20T13:05:10;5.80;94.20
16627;DHT22;8427;52.204;7.202;2023-12-20T13:07:38;5.80;94.00
16627;DHT22;8427;52.204;7.202;2023-12-20T13:10:07;6.00;94.20
16627;DHT22;8427;52.204;7.202;2023-12-20T13:12:35;6.00;94.20
16627;DHT22;8427;52.204;7.202;2023-12-20T13:15:04;6.10;94.00
16627;DHT22;8427;52.204;7.202;2023-12-20T13:17:32;6.00;93.80
16627;DHT22;8427;52.204;7.202;2023-12-20T13:20:00;6.10;94.00
16627;DHT22;8427;52.204;7.202;2023-12-20T13:22:29;6.10;94.20
16627;DHT22;8427;52.204;7.202;2023-12-20T13:24:57;5.90;94.00
16627;DHT22;8427;52.204;7.202;2023-12-20T13:27:25;5.90;94.00
16627;DHT22;8427;52.204;7.202;2023-12-20T13:29:53;6.00;94.00
16627;DHT22;8427;52.204;7.202;2023-12-20T13:32:21;5.90;94.30
16627;DHT22;8427;52.204;7.202;2023-12-20T13:34:49;5.90;94.50
16627;DHT22;8427;52.204;7.202;2023-12-20T13:37:17;5.80;94.50
16627;DHT22;8427;52.204;7.202;2023-12-20T13:39:46;5.90;94.40
16627;DHT22;8427;52.204;7.202;2023-12-20T13:42:14;5.80;94.60
16627;DHT22;8427;52.204;7.202;2023-12-20T13:44:42;5.90;94.70
16627;DHT22;8427;52.204;7.202;2023-12-20T13:47:10;6.00;94.80
16627;DHT22;8427;52.204;7.202;2023-12-20T13:49:38;6.00;94.70
16627;DHT22;8427;52.204;7.202;2023-12-20T13:52:06;6.10;94.70
16627;DHT22;8427;52.204;7.202;2023-12-20T13:54:34;6.00;94.80
16627;DHT22;8427;52.204;7.202;2023-12-20T13:57:04;5.90;94.80
16627;DHT22;8427;52.204;7.202;2023-12-20T13:59:47;5.80;94.90
16627;DHT22;8427;52.204;7.202;2023-12-20T14:02:15;5.80;94.80
16627;DHT22;8427;52.204;7.202;2023-12-20T14:04:43;6.00;94.70
16627;DHT22;8427;52.204;7.202;2023-12-20T14:07:11;5.90;94.80
16627;DHT22;8427;52.204;7.202;2023-12-20T14:09:40;6.20;94.40
16627;DHT22;8427;52.204;7.202;2023-12-20T14:12:13;5.80;94.30
16627;DHT22;8427;52.204;7.202;2023-12-20T14:14:41;6.20;94.40
16627;DHT22;8427;52.204;7.202;2023-12-20T14:17:09;6.30;94.70
16627;DHT22;8427;52.204;7.202;2023-12-20T14:19:36;6.30;94.80
16627;DHT22;8427;52.204;7.202;2023-12-20T14:22:06;6.20;95.00
16627;DHT22;8427;52.204;7.202;2023-12-20T14:24:35;6.20;94.70
16627;DHT22;8427;52.204;7.202;2023-12-20T14:27:03;6.30;95.00
16627;DHT22;8427;52.204;7.202;2023-12-20T14:29:32;6.30;95.00
16627;DHT22;8427;52.204;7.202;2023-12-20T14:32:00;6.50;94.80
16627;DHT22;8427;52.204;7.202;2023-12-20T14:34:29;6.50;94.80
16627;DHT22;8427;52.204;7.202;2023-12-20T14:36:57;6.40;94.70
16627;DHT22;8427;52.204;7.202;2023-12-20T14:39:25;6.40;94.70
16627;DHT22;8427;52.204;7.202;2023-12-20T14:41:53;6.50;94.60
16627;DHT22;8427;52.204;7.202;2023-12-20T14:44:21;6.60;94.70
16627;DHT22;8427;52.204;7.202;2023-12-20T14:46:50;6.50;94.60
16627;DHT22;8427;52.204;7.202;2023-12-20T14:49:18;6.60;94.60
16627;DHT22;8427;52.204;7.202;2023-12-20T14:51:46;6.60;94.40
16627;DHT22;8427;52.204;7.202;2023-12-20T14:54:14;6.70;94.40
16627;DHT22;8427;52.204;7.202;2023-12-20T14:56:42;6.80;94.40
16627;DHT22;8427;52.204;7.202;2023-12-20T14:59:10;6.60;94.10
16627;DHT22;8427;52.204;7.202;2023-12-20T15:01:38;6.80;93.90
16627;DHT22;8427;52.204;7.202;2023-12-20T15:04:09;6.90;93.90
16627;DHT22;8427;52.204;7.202;2023-12-20T15:06:37;6.90;93.80
16627;DHT22;8427;52.204;7.202;2023-12-20T15:09:05;7.00;93.80
16627;DHT22;8427;52.204;7.202;2023-12-20T15:11:33;6.80;93.70
16627;DHT22;8427;52.204;7.202;2023-12-20T15:14:02;6.90;93.90
16627;DHT22;8427;52.204;7.202;2023-12-20T15:16:30;6.90;93.90
16627;DHT22;8427;52.204;7.202;2023-12-20T15:18:58;6.80;93.90
16627;DHT22;8427;52.204;7.202;2023-12-20T15:21:27;6.70;94.10
16627;DHT22;8427;52.204;7.202;2023-12-20T15:23:59;7.00;94.10
16627;DHT22;8427;52.204;7.202;2023-12-20T15:26:38;6.90;94.00
16627;DHT22;8427;52.204;7.202;2023-12-20T15:29:06;6.80;94.10
16627;DHT22;8427;52.204;7.202;2023-12-20T15:31:36;6.90;94.00
16627;DHT22;8427;52.204;7.202;2023-12-20T15:34:04;7.10;94.00
16627;DHT22;8427;52.204;7.202;2023-12-20T15:36:34;7.10;93.30
16627;DHT22;8427;52.204;7.202;2023-12-20T15:39:02;6.90;93.30
16627;DHT22;8427;52.204;7.202;2023-12-20T15:41:30;6.90;93.20
16627;DHT22;8427;52.204;7.202;2023-12-20T15:43:58;6.90;93.60
16627;DHT22;8427;52.204;7.202;2023-12-20T15:46:27;7.00;94.00
16627;DHT22;8427;52.204;7.202;2023-12-20T15:48:55;6.80;94.30
16627;DHT22;8427;52.204;7.202;2023-12-20T15:51:23;6.80;94.30
16627;DHT22;8427;52.204;7.202;2023-12-20T15:53:52;6.80;94.50
16627;DHT22;8427;52.204;7.202;2023-12-20T15:56:20;6.90;94.50
16627;DHT22;8427;52.204;7.202;2023-12-20T15:58:48;7.10;94.60
16627;DHT22;8427;52.204;7.202;2023-12-20T16:01:18;6.90;94.60
16627;DHT22;8427;52.204;7.202;2023-12-20T16:03:46;6.90;94.70
16627;DHT22;8427;52.204;7.202;2023-12-20T16:06:24;7.10;94.80
16627;DHT22;8427;52.204;7.202;2023-12-20T16:08:54;7.00;94.60
16627;DHT22;8427;52.204;7.202;2023-12-20T16:11:26;6.90;94.80
16627;DHT22;8427;52.204;7.202;2023-12-20T16:13:54;6.90;94.70